AirNav   Air Wisconsin Up To $57,000 Bonus
 
 441 users online  

NH32 Bentley Heliport
Exeter, New Hampshire, USA

GOING TO EXETER?


FAA INFORMATION EFFECTIVE 27 FEBRUARY 2020

Location

FAA Identifier: NH32
Lat/Long: 42-58-53.3180N 070-55-07.2010W
42-58.888633N 070-55.120017W
42.9814772,-70.9186669
(estimated)
Elevation: 66 ft. / 20 m (estimated)
Variation: 16W (1985)
From city: 1 mile NE of EXETER, NH
Time zone: UTC -5 (UTC -4 during Daylight Saving Time)
Zip code: 03833

Heliport Operations

Heliport use: Private use. Permission required prior to landing
Activation date: 07/1976
Control tower: no
ARTCC: BOSTON CENTER
FSS: BANGOR FLIGHT SERVICE STATION
Attendance: UNATNDD
Wind indicator: yes
Segmented circle: no

Heliport Communications

WX ASOS at DAW (18 nm N): 135.275 (603-332-7814)
WX ASOS at LWM (18 nm SW): PHONE 978-687-8017

Nearby radio navigation aids

VOR radial/distance  VOR name  Freq  Var
PSMr228/7.3PEASE VOR/DME116.5016W
LWMr043/16.4LAWRENCE VOR/DME112.5015W
MHTr086/20.9MANCHESTER VOR/DME114.4015W
ENEr224/29.8KENNEBUNK VOR/DME117.1017W
CONr131/32.1CONCORD VOR/DME112.9015W
BOSr021/37.6BOSTON VOR/DME112.7016W

 
NDB name  Hdg/Dist  Freq  Var  ID
ROLLINS211/14.926016WESG . ... --.

Heliport Services

Runway Information

Helipad H1

Dimensions: 60 x 60 ft. / 18 x 18 m
Surface: asphalt/concrete
Traffic pattern: leftleft

Heliport Ownership and Management from official FAA records

Ownership: Privately-owned
Owner: CPEX PHARMACEUTICALS INC
BENTLEY PARK, 2 HOLLAND WAY
EXETER, NH 03833
Phone 603-658-6100
Manager: JONATHAN LANCE AUGHEY
BENTLEY PARK, 2 HOLLAND WAY
EXETER, NH 03833
Phone 603-658-6100

Additional Remarks

FOR CD CTC BOSTON APCH AT 603-594-5551.

Instrument Procedures

There are no published instrument procedures at NH32.

Some nearby airports with instrument procedures:

KPSM - Portsmouth International Airport at Pease (7 nm NE)
3B4 - Littlebrook Air Park (12 nm NE)
KDAW - Skyhaven Airport (18 nm N)
KLWM - Lawrence Municipal Airport (18 nm SW)
KMHT - Manchester Airport (23 nm W)
 
Loc | Ops | Rwys | IFR | FBO | Links
Com | Nav | Svcs | Stats | Notes
Area around NH32 (Bentley Heliport)
 
Road maps at: MapQuest Bing Google
 
Aerial photo
No photo
 
Sectional chart

 
Airport distance calculator
Flying to Bentley Heliport? Find the distance to fly.

From to NH32

Sunrise and sunset
Times for 29-Feb-2020
 Local
(UTC-5)
 Zulu
(UTC)
Morning civil twilight05:5210:52
Sunrise06:2111:21
Sunset17:3122:31
Evening civil twilight18:0023:00

Current date and time
Zulu (UTC)  29-Feb-2020 10:11:57
Local (UTC-5)  29-Feb-2020 05:11:57
 
METAR
KPSM 
7nm NE 
290956Z 25005KT 10SM FEW075 FEW150 SCT200 M04/M11 A2974 RMK AO2A SLP075 T10371112
KDAW 
18nm N 
290951Z AUTO 00000KT 10SM CLR M07/M12 A2973 RMK AO2 SLP067 T10671117
KLWM 
18nm SW 
290954Z AUTO 00000KT 10SM CLR M06/M11 A2977 RMK AO2 SLP083 T10611106
TAF
KPSM 
7nm NE 
290520Z 2906/0106 24007KT P6SM FEW080 FM291500 27010KT P6SM OVC050 FM291900 28012G19KT P6SM OVC050 FM010200 30006KT P6SM BKN250
NOTAMs
Click for the latest NOTAMs
NOTAMs are issued by the DoD/FAA and will open in a separate window not controlled by AirNav.

 

 
 

Would you like to see your business listed on this page?

 If your business provides an interesting product or service to pilots, flight crews, aircraft, or users of the Bentley Heliport, you should consider listing it here.  To start the listing process, click on the button below
 
Add a business
 

Other Pages about Bentley Heliport

Update a link
 
Copyright © AirNav, LLC. All rights reserved. Privacy Policy  Contact